createdAt,value
2023-03-15T00:05:43.926Z,1.90
2023-03-15T00:17:37.086Z,4.10
2023-03-15T00:29:37.547Z,4.50
2023-03-15T00:41:38.143Z,3.00
2023-03-15T00:53:38.448Z,2.40
2023-03-15T01:05:40.599Z,3.20
2023-03-15T01:17:39.359Z,2.90
2023-03-15T01:29:39.838Z,2.80
2023-03-15T01:41:40.221Z,4.10
2023-03-15T01:53:43.420Z,3.40
2023-03-15T02:05:41.173Z,2.50
2023-03-15T02:17:41.643Z,3.20
2023-03-15T02:29:42.082Z,2.70
2023-03-15T02:41:42.638Z,2.00
2023-03-15T02:53:42.984Z,4.00
2023-03-15T03:05:43.458Z,4.00
2023-03-15T03:17:43.877Z,4.20
2023-03-15T03:29:44.334Z,4.60
2023-03-15T03:41:44.793Z,3.90
2023-03-15T03:53:45.703Z,3.10
2023-03-15T04:05:45.698Z,2.80
2023-03-15T04:17:46.147Z,2.90
2023-03-15T04:29:46.607Z,3.70
2023-03-15T04:41:47.014Z,4.20
2023-03-15T04:53:47.476Z,4.40
2023-03-15T05:05:47.957Z,4.70
2023-03-15T05:17:48.421Z,5.20
2023-03-15T05:29:48.883Z,5.80
2023-03-15T05:41:49.309Z,6.00
2023-03-15T05:53:49.730Z,12.50
2023-03-15T06:05:50.212Z,14.00
2023-03-15T06:17:52.379Z,9.30
2023-03-15T06:29:51.127Z,10.90
2023-03-15T06:41:51.585Z,15.80
2023-03-15T06:53:52.013Z,12.90
2023-03-15T07:05:52.659Z,11.10
2023-03-15T07:17:52.945Z,14.30
2023-03-15T07:29:53.525Z,15.50
2023-03-15T07:41:53.869Z,8.70
2023-03-15T07:53:54.327Z,8.30
2023-03-15T08:05:57.516Z,6.00
2023-03-15T08:17:55.206Z,6.40
2023-03-15T08:29:55.599Z,6.30
2023-03-15T08:41:56.104Z,7.30
2023-03-15T08:53:56.541Z,7.90
2023-03-15T09:05:57.010Z,5.80
2023-03-15T09:17:57.456Z,7.50
2023-03-15T09:29:57.941Z,6.80
2023-03-15T09:41:58.337Z,6.10
2023-03-15T09:53:58.823Z,4.90
2023-03-15T10:05:59.285Z,5.60
2023-03-15T10:17:59.742Z,8.00
2023-03-15T10:30:00.174Z,6.00
2023-03-15T10:42:00.640Z,5.60
2023-03-15T10:54:01.069Z,9.10
2023-03-15T11:06:01.562Z,7.90
2023-03-15T11:18:01.976Z,9.10
2023-03-15T11:30:02.422Z,7.00
2023-03-15T11:42:02.871Z,7.70
2023-03-15T11:54:03.418Z,57.10
2023-03-15T12:06:03.805Z,8.00
2023-03-15T12:18:04.257Z,7.70
2023-03-15T12:30:04.702Z,6.50
2023-03-15T12:42:05.295Z,5.30
2023-03-15T12:54:05.621Z,6.70
2023-03-15T13:06:06.058Z,8.00
2023-03-15T13:18:06.516Z,8.30
2023-03-15T13:30:06.974Z,6.30
2023-03-15T13:42:07.433Z,3.80
2023-03-15T13:54:07.850Z,7.40
2023-03-15T14:06:08.312Z,4.00
2023-03-15T14:18:08.781Z,3.40
2023-03-15T14:30:09.272Z,4.90
2023-03-15T14:42:09.694Z,4.80
2023-03-15T14:54:10.121Z,4.20
2023-03-15T15:06:10.613Z,4.70
2023-03-15T15:18:11.037Z,4.70
2023-03-15T15:30:11.469Z,4.50
2023-03-15T15:42:11.956Z,8.20
2023-03-15T15:54:12.391Z,5.30
2023-03-15T16:06:12.849Z,7.50
2023-03-15T16:18:13.416Z,6.10
2023-03-15T16:30:13.751Z,61.90
2023-03-15T16:42:15.265Z,9.30
2023-03-15T17:06:15.136Z,10.00
2023-03-15T17:18:15.628Z,8.00
2023-03-15T17:30:16.033Z,7.70
2023-03-15T17:42:16.542Z,10.80
2023-03-15T17:54:16.906Z,6.90
2023-03-15T18:06:17.372Z,8.20
2023-03-15T18:18:17.804Z,8.30
2023-03-15T18:30:18.283Z,8.90
2023-03-15T18:42:18.735Z,10.20
2023-03-15T18:54:19.132Z,14.80
2023-03-15T19:06:19.638Z,11.40
2023-03-15T19:18:20.097Z,23.10
2023-03-15T19:30:20.531Z,7.30
2023-03-15T19:42:20.984Z,10.10
2023-03-15T19:54:21.477Z,22.60
2023-03-15T20:06:24.106Z,10.10
2023-03-15T20:18:22.380Z,9.10
2023-03-15T20:30:23.310Z,7.00
2023-03-15T20:54:25.979Z,9.00
2023-03-15T21:06:24.277Z,13.70
2023-03-15T21:18:24.609Z,10.10
2023-03-15T21:30:25.426Z,10.60
2023-03-15T21:42:25.490Z,9.10
2023-03-15T21:54:25.959Z,21.40
2023-03-15T22:06:26.394Z,45.00
2023-03-15T22:18:26.944Z,33.90
2023-03-15T22:30:27.860Z,17.60
2023-03-15T22:42:27.925Z,35.70
2023-03-15T22:54:30.411Z,59.20
2023-03-15T23:06:28.711Z,48.00
2023-03-15T23:18:29.124Z,40.20
2023-03-15T23:30:29.617Z,47.70
2023-03-15T23:42:32.729Z,51.10
2023-03-15T23:54:30.510Z,55.20
